Time,TemperatureF,DewpointF,PressureIn,WindDirection,WindDirectionDegrees,WindSpeedMPH,WindSpeedGustMPH,Humidity,HourlyPrecipIn,Conditions,Clouds,dailyrainin,SoftwareType,DateUTC
2013-06-30 00:14:00,64.7,53.0,29.88,West,269,4.0,7.0,65,0.00,,,0.01,weatherlink.com 1.10,2013-06-30 05:14:00,
2013-06-30 00:29:00,64.2,52.0,29.88,NNE,26,5.0,9.0,64,0.00,,,0.01,weatherlink.com 1.10,2013-06-30 05:29:00,
2013-06-30 00:44:00,63.6,51.0,29.88,East,101,3.0,10.0,64,0.00,,,0.01,weatherlink.com 1.10,2013-06-30 05:44:00,
2013-06-30 00:59:00,63.0,52.0,29.88,North,355,4.0,12.0,67,0.00,,,0.01,weatherlink.com 1.10,2013-06-30 05:59:00,
2013-06-30 01:14:00,62.4,52.0,29.89,East,85,7.0,9.0,68,0.00,,,0.01,weatherlink.com 1.10,2013-06-30 06:14:00,
2013-06-30 01:29:00,61.9,52.0,29.89,East,86,8.0,9.0,71,0.00,,,0.01,weatherlink.com 1.10,2013-06-30 06:29:00,
2013-06-30 01:45:00,61.3,53.0,29.89,ENE,65,3.0,8.0,73,0.00,,,0.01,weatherlink.com 1.10,2013-06-30 06:45:00,
2013-06-30 02:00:00,60.8,52.0,29.88,ENE,70,1.0,9.0,74,0.00,,,0.01,weatherlink.com 1.10,2013-06-30 07:00:00,
2013-06-30 02:15:00,60.5,53.0,29.89,NE,36,4.0,8.0,75,0.00,,,0.01,weatherlink.com 1.10,2013-06-30 07:15:00,
2013-06-30 02:30:00,60.2,53.0,29.89,ENE,78,3.0,9.0,76,0.00,,,0.01,weatherlink.com 1.10,2013-06-30 07:30:00,
2013-06-30 02:45:00,60.2,52.0,29.89,East,86,2.0,8.0,75,0.00,,,0.01,weatherlink.com 1.10,2013-06-30 07:45:00,
2013-06-30 03:00:00,59.8,52.0,29.89,NE,52,2.0,8.0,75,0.00,,,0.01,weatherlink.com 1.10,2013-06-30 08:00:00,
2013-06-30 03:15:00,59.5,52.0,29.89,ENE,69,5.0,7.0,75,0.00,,,0.01,weatherlink.com 1.10,2013-06-30 08:15:00,
2013-06-30 03:30:00,59.3,51.0,29.89,NE,34,5.0,7.0,75,0.00,,,0.01,weatherlink.com 1.10,2013-06-30 08:30:00,
2013-06-30 03:45:00,59.0,51.0,29.90,ENE,58,2.0,9.0,75,0.00,,,0.01,weatherlink.com 1.10,2013-06-30 08:45:00,
2013-06-30 04:00:00,58.8,51.0,29.90,East,88,1.0,9.0,76,0.00,,,0.01,weatherlink.com 1.10,2013-06-30 09:00:00,
2013-06-30 04:15:00,58.3,51.0,29.91,ENE,57,7.0,9.0,77,0.00,,,0.01,weatherlink.com 1.10,2013-06-30 09:15:00,
2013-06-30 04:30:00,57.8,51.0,29.91,ENE,69,1.0,7.0,79,0.00,,,0.01,weatherlink.com 1.10,2013-06-30 09:30:00,
2013-06-30 04:45:00,57.6,51.0,29.91,ENE,57,3.0,8.0,78,0.00,,,0.01,weatherlink.com 1.10,2013-06-30 09:45:00,
2013-06-30 05:00:00,57.4,51.0,29.91,NE,43,2.0,9.0,78,0.00,,,0.01,weatherlink.com 1.10,2013-06-30 10:00:00,
2013-06-30 05:15:00,57.1,51.0,29.92,NE,41,4.0,8.0,79,0.00,,,0.01,weatherlink.com 1.10,2013-06-30 10:15:00,
2013-06-30 05:30:00,56.9,50.0,29.93,NE,35,6.0,8.0,79,0.00,,,0.01,weatherlink.com 1.10,2013-06-30 10:30:00,
2013-06-30 05:45:00,56.6,51.0,29.93,East,90,2.0,8.0,80,0.00,,,0.01,weatherlink.com 1.10,2013-06-30 10:45:00,
2013-06-30 06:00:00,56.8,50.0,29.94,NE,39,3.0,8.0,79,0.00,,,0.01,weatherlink.com 1.10,2013-06-30 11:00:00,
2013-06-30 06:15:00,56.8,50.0,29.94,NE,50,4.0,7.0,79,0.00,,,0.01,weatherlink.com 1.10,2013-06-30 11:15:00,
2013-06-30 06:30:00,57.1,51.0,29.95,East,99,0.0,8.0,79,0.00,,,0.01,weatherlink.com 1.10,2013-06-30 11:30:00,
2013-06-30 06:45:00,57.8,51.0,29.95,ESE,123,1.0,8.0,77,0.00,,,0.01,weatherlink.com 1.10,2013-06-30 11:45:00,
2013-06-30 07:00:00,58.6,51.0,29.95,East,82,6.0,10.0,75,0.00,,,0.01,weatherlink.com 1.10,2013-06-30 12:00:00,
2013-06-30 07:15:00,59.3,51.0,29.96,NE,37,4.0,11.0,74,0.00,,,0.01,weatherlink.com 1.10,2013-06-30 12:15:00,
2013-06-30 07:30:00,60.0,51.0,29.96,East,94,1.0,15.0,72,0.00,,,0.01,weatherlink.com 1.10,2013-06-30 12:30:00,
2013-06-30 07:45:00,61.0,51.0,29.96,SSE,148,2.0,7.0,70,0.00,,,0.00,weatherlink.com 1.10,2013-06-30 12:45:00,
2013-06-30 08:00:00,61.9,51.0,29.97,NE,36,2.0,9.0,68,0.00,,,0.00,weatherlink.com 1.10,2013-06-30 13:00:00,
2013-06-30 08:15:00,63.2,52.0,29.97,SSE,161,2.0,6.0,67,0.00,,,0.00,weatherlink.com 1.10,2013-06-30 13:15:00,
2013-06-30 08:30:00,64.2,52.0,29.98,NE,46,4.0,9.0,64,0.00,,,0.00,weatherlink.com 1.10,2013-06-30 13:30:00,
2013-06-30 08:46:00,65.6,52.0,29.98,South,178,3.0,9.0,61,0.00,,,0.00,weatherlink.com 1.10,2013-06-30 13:46:00,
2013-06-30 09:01:00,66.9,51.0,29.98,SSW,205,2.0,9.0,58,0.00,,,0.00,weatherlink.com 1.10,2013-06-30 14:01:00,
2013-06-30 09:16:00,67.8,51.0,29.98,East,83,1.0,8.0,56,0.00,,,0.00,weatherlink.com 1.10,2013-06-30 14:16:00,
2013-06-30 09:31:00,69.3,52.0,29.98,SSW,198,4.0,8.0,54,0.00,,,0.00,weatherlink.com 1.10,2013-06-30 14:31:00,
2013-06-30 09:46:00,69.8,51.0,29.98,East,89,2.0,10.0,51,0.00,,,0.00,weatherlink.com 1.10,2013-06-30 14:46:00,
2013-06-30 10:01:00,70.5,50.0,29.99,NE,48,3.0,11.0,49,0.00,,,0.00,weatherlink.com 1.10,2013-06-30 15:01:00,
2013-06-30 10:16:00,71.8,51.0,29.99,NW,312,3.0,8.0,49,0.00,,,0.00,weatherlink.com 1.10,2013-06-30 15:16:00,
2013-06-30 10:31:00,73.3,52.0,29.99,North,355,2.0,10.0,48,0.00,,,0.00,weatherlink.com 1.10,2013-06-30 15:31:00,
2013-06-30 10:46:00,74.0,50.0,29.98,SSE,156,3.0,12.0,43,0.00,,,0.00,weatherlink.com 1.10,2013-06-30 15:46:00,
2013-06-30 11:01:00,74.5,51.0,29.99,NNE,30,5.0,11.0,44,0.00,,,0.00,weatherlink.com 1.10,2013-06-30 16:01:00,
2013-06-30 11:16:00,75.2,51.0,29.98,ENE,77,5.0,13.0,43,0.00,,,0.00,weatherlink.com 1.10,2013-06-30 16:16:00,
2013-06-30 11:31:00,76.1,50.0,29.99,ESE,113,4.0,15.0,40,0.00,,,0.00,weatherlink.com 1.10,2013-06-30 16:31:00,
2013-06-30 11:46:00,76.8,48.0,29.99,WSW,238,3.0,14.0,36,0.00,,,0.00,weatherlink.com 1.10,2013-06-30 16:46:00,
2013-06-30 12:01:00,77.4,49.0,29.99,NE,45,9.0,14.0,37,0.00,,,0.00,weatherlink.com 1.10,2013-06-30 17:01:00,
2013-06-30 12:16:00,78.3,49.0,29.99,ESE,119,5.0,10.0,36,0.00,,,0.00,weatherlink.com 1.10,2013-06-30 17:16:00,
2013-06-30 12:31:00,78.2,48.0,29.99,NNE,19,3.0,12.0,35,0.00,,,0.00,weatherlink.com 1.10,2013-06-30 17:31:00,
2013-06-30 12:46:00,78.9,47.0,29.99,NE,38,2.0,10.0,33,0.00,,,0.00,weatherlink.com 1.10,2013-06-30 17:46:00,
2013-06-30 13:01:00,79.4,46.0,29.99,ENE,70,4.0,11.0,31,0.00,,,0.00,weatherlink.com 1.10,2013-06-30 18:01:00,
2013-06-30 13:16:00,80.3,44.0,29.99,NE,35,5.0,13.0,28,0.00,,,0.00,weatherlink.com 1.10,2013-06-30 18:16:00,
2013-06-30 13:31:00,80.8,43.0,29.99,ENE,76,5.0,12.0,26,0.00,,,0.00,weatherlink.com 1.10,2013-06-30 18:31:00,
2013-06-30 13:46:00,80.5,43.0,29.99,East,99,5.0,14.0,26,0.00,,,0.00,weatherlink.com 1.10,2013-06-30 18:46:00,
2013-06-30 14:01:00,81.1,42.0,29.99,SE,140,9.0,12.0,25,0.00,,,0.00,weatherlink.com 1.10,2013-06-30 19:01:00,
2013-06-30 14:16:00,81.1,43.0,29.99,ESE,105,10.0,13.0,26,0.00,,,0.00,weatherlink.com 1.10,2013-06-30 19:16:00,
2013-06-30 14:31:00,81.2,43.0,29.99,NE,44,4.0,11.0,26,0.00,,,0.00,weatherlink.com 1.10,2013-06-30 19:31:00,
2013-06-30 14:46:00,81.6,43.0,29.99,ENE,63,4.0,12.0,25,0.00,,,0.00,weatherlink.com 1.10,2013-06-30 19:46:00,
2013-06-30 15:01:00,82.1,44.0,29.99,SE,131,5.0,12.0,26,0.00,,,0.00,weatherlink.com 1.10,2013-06-30 20:01:00,
2013-06-30 15:16:00,81.9,42.0,29.98,SE,143,4.0,11.0,24,0.00,,,0.00,weatherlink.com 1.10,2013-06-30 20:16:00,
2013-06-30 15:31:00,81.9,43.0,29.99,West,281,4.0,14.0,25,0.00,,,0.00,weatherlink.com 1.10,2013-06-30 20:31:00,
2013-06-30 15:46:00,82.3,43.0,29.99,ESE,107,7.0,13.0,25,0.00,,,0.00,weatherlink.com 1.10,2013-06-30 20:46:00,
2013-06-30 16:02:00,83.0,42.0,29.99,East,88,8.0,13.0,23,0.00,,,0.00,weatherlink.com 1.10,2013-06-30 21:02:00,
2013-06-30 16:17:00,83.1,42.0,29.99,East,95,3.0,9.0,23,0.00,,,0.00,weatherlink.com 1.10,2013-06-30 21:17:00,
2013-06-30 16:32:00,83.5,41.0,29.99,SSE,155,1.0,13.0,22,0.00,,,0.00,weatherlink.com 1.10,2013-06-30 21:32:00,
2013-06-30 16:47:00,82.0,43.0,29.99,ENE,77,4.0,12.0,25,0.00,,,0.00,weatherlink.com 1.10,2013-06-30 21:47:00,
2013-06-30 17:02:00,81.9,43.0,29.99,ENE,65,3.0,16.0,25,0.00,,,0.00,weatherlink.com 1.10,2013-06-30 22:02:00,
2013-06-30 17:17:00,82.8,44.0,29.98,NW,323,3.0,11.0,25,0.00,,,0.00,weatherlink.com 1.10,2013-06-30 22:17:00,
2013-06-30 17:32:00,82.8,44.0,29.98,East,99,8.0,13.0,25,0.00,,,0.00,weatherlink.com 1.10,2013-06-30 22:32:00,
2013-06-30 17:47:00,82.9,45.0,29.98,NNE,14,1.0,15.0,26,0.00,,,0.00,weatherlink.com 1.10,2013-06-30 22:47:00,
2013-06-30 18:02:00,82.9,47.0,29.99,SE,144,1.0,11.0,28,0.00,,,0.00,weatherlink.com 1.10,2013-06-30 23:02:00,
2013-06-30 18:17:00,82.7,47.0,29.99,ESE,105,1.0,12.0,29,0.00,,,0.00,weatherlink.com 1.10,2013-06-30 23:17:00,
2013-06-30 18:32:00,82.8,46.0,29.99,ENE,60,3.0,8.0,28,0.00,,,0.00,weatherlink.com 1.10,2013-06-30 23:32:00,
2013-06-30 18:47:00,82.8,46.0,29.99,NNW,331,3.0,9.0,28,0.00,,,0.00,weatherlink.com 1.10,2013-06-30 23:47:00,
2013-06-30 19:02:00,82.4,48.0,29.99,ESE,121,7.0,8.0,30,0.00,,,0.00,weatherlink.com 1.10,2013-07-01 00:02:00,
2013-06-30 19:17:00,81.8,48.0,30.00,NNE,26,3.0,9.0,31,0.00,,,0.00,weatherlink.com 1.10,2013-07-01 00:17:00,
2013-06-30 19:32:00,81.8,49.0,29.99,ESE,115,0.0,4.0,32,0.00,,,0.00,weatherlink.com 1.10,2013-07-01 00:32:00,
2013-06-30 19:47:00,81.3,50.0,29.99,NE,53,2.0,8.0,34,0.00,,,0.00,weatherlink.com 1.10,2013-07-01 00:47:00,
2013-06-30 20:02:00,80.2,52.0,29.99,ESE,105,0.0,4.0,37,0.00,,,0.00,weatherlink.com 1.10,2013-07-01 01:02:00,
2013-06-30 20:17:00,78.8,52.0,29.99,SE,129,3.0,5.0,39,0.00,,,0.00,weatherlink.com 1.10,2013-07-01 01:17:00,
2013-06-30 20:32:00,77.9,52.0,29.99,East,100,1.0,4.0,40,0.00,,,0.00,weatherlink.com 1.10,2013-07-01 01:32:00,
2013-06-30 20:47:00,77.1,52.0,30.00,East,98,0.0,5.0,42,0.00,,,0.00,weatherlink.com 1.10,2013-07-01 01:47:00,
2013-06-30 21:02:00,76.4,53.0,30.00,East,101,0.0,2.0,45,0.00,,,0.00,weatherlink.com 1.10,2013-07-01 02:02:00,
2013-06-30 21:17:00,75.1,55.0,30.01,East,101,0.0,2.0,49,0.00,,,0.00,weatherlink.com 1.10,2013-07-01 02:17:00,
2013-06-30 21:32:00,73.1,55.0,30.02,East,101,1.0,2.0,53,0.00,,,0.00,weatherlink.com 1.10,2013-07-01 02:32:00,
2013-06-30 21:47:00,71.9,56.0,30.02,East,101,0.0,1.0,57,0.00,,,0.00,weatherlink.com 1.10,2013-07-01 02:47:00,
2013-06-30 22:02:00,71.0,56.0,30.02,East,101,0.0,1.0,60,0.00,,,0.00,weatherlink.com 1.10,2013-07-01 03:02:00,
2013-06-30 22:17:00,70.1,57.0,30.03,East,101,0.0,1.0,64,0.00,,,0.00,weatherlink.com 1.10,2013-07-01 03:17:00,
2013-06-30 22:32:00,69.5,58.0,30.03,East,99,0.0,1.0,68,0.00,,,0.00,weatherlink.com 1.10,2013-07-01 03:32:00,
2013-06-30 22:47:00,68.7,59.0,30.03,East,99,0.0,1.0,70,0.00,,,0.00,weatherlink.com 1.10,2013-07-01 03:47:00,
2013-06-30 23:02:00,67.9,56.0,30.04,East,96,0.0,1.0,67,0.00,,,0.00,weatherlink.com 1.10,2013-07-01 04:02:00,
2013-06-30 23:17:00,67.6,57.0,30.04,East,96,0.0,1.0,70,0.00,,,0.00,weatherlink.com 1.10,2013-07-01 04:17:00,
2013-06-30 23:32:00,66.5,58.0,30.04,East,96,0.0,1.0,73,0.00,,,0.00,weatherlink.com 1.10,2013-07-01 04:32:00,
2013-06-30 23:47:00,65.7,57.0,30.04,East,96,0.0,2.0,74,0.00,,,0.00,weatherlink.com 1.10,2013-07-01 04:47:00,